sensor_id;sensor_type;location;lat;lon;timestamp;temperature;humidity
19019;DHT22;9642;50.842;4.348;2022-09-12T00:01:14;18.50;99.90
19019;DHT22;9642;50.842;4.348;2022-09-12T00:03:41;18.50;99.90
19019;DHT22;9642;50.842;4.348;2022-09-12T00:06:15;18.40;99.90
19019;DHT22;9642;50.842;4.348;2022-09-12T00:08:41;18.50;99.90
19019;DHT22;9642;50.842;4.348;2022-09-12T00:11:08;18.40;99.90
19019;DHT22;9642;50.842;4.348;2022-09-12T00:13:36;18.40;99.90
19019;DHT22;9642;50.842;4.348;2022-09-12T00:16:02;18.50;99.90
19019;DHT22;9642;50.842;4.348;2022-09-12T00:18:28;18.40;99.90
19019;DHT22;9642;50.842;4.348;2022-09-12T00:20:54;18.30;99.90
19019;DHT22;9642;50.842;4.348;2022-09-12T00:23:20;18.30;99.90
19019;DHT22;9642;50.842;4.348;2022-09-12T00:25:47;18.30;99.90
19019;DHT22;9642;50.842;4.348;2022-09-12T00:28:14;18.20;99.90
19019;DHT22;9642;50.842;4.348;2022-09-12T00:30:42;18.20;99.90
19019;DHT22;9642;50.842;4.348;2022-09-12T00:33:09;18.20;99.90
19019;DHT22;9642;50.842;4.348;2022-09-12T00:35:48;18.10;99.90
19019;DHT22;9642;50.842;4.348;2022-09-12T00:38:15;18.00;99.90
19019;DHT22;9642;50.842;4.348;2022-09-12T00:40:42;18.10;99.90
19019;DHT22;9642;50.842;4.348;2022-09-12T00:43:33;18.10;99.90
19019;DHT22;9642;50.842;4.348;2022-09-12T00:46:05;18.10;99.90
19019;DHT22;9642;50.842;4.348;2022-09-12T00:48:42;18.10;99.90
19019;DHT22;9642;50.842;4.348;2022-09-12T00:51:11;18.10;99.90
19019;DHT22;9642;50.842;4.348;2022-09-12T00:53:39;18.00;99.90
19019;DHT22;9642;50.842;4.348;2022-09-12T00:56:06;18.10;99.90
19019;DHT22;9642;50.842;4.348;2022-09-12T00:58:43;18.00;99.90
19019;DHT22;9642;50.842;4.348;2022-09-12T01:01:12;18.10;99.90
19019;DHT22;9642;50.842;4.348;2022-09-12T01:03:38;18.10;99.90
19019;DHT22;9642;50.842;4.348;2022-09-12T01:06:16;18.00;99.90
19019;DHT22;9642;50.842;4.348;2022-09-12T01:08:46;18.00;99.90
19019;DHT22;9642;50.842;4.348;2022-09-12T01:11:12;18.00;99.90
19019;DHT22;9642;50.842;4.348;2022-09-12T01:13:39;18.10;99.90
19019;DHT22;9642;50.842;4.348;2022-09-12T01:16:05;18.00;99.90
19019;DHT22;9642;50.842;4.348;2022-09-12T01:21:22;17.90;99.90
19019;DHT22;9642;50.842;4.348;2022-09-12T01:27:16;18.00;99.90
19019;DHT22;9642;50.842;4.348;2022-09-12T01:38:09;18.00;99.90
19019;DHT22;9642;50.842;4.348;2022-09-12T01:40:44;17.90;99.90
19019;DHT22;9642;50.842;4.348;2022-09-12T01:44:20;17.90;99.90
19019;DHT22;9642;50.842;4.348;2022-09-12T01:49:20;18.00;99.90
19019;DHT22;9642;50.842;4.348;2022-09-12T01:52:12;17.90;99.90
19019;DHT22;9642;50.842;4.348;2022-09-12T01:55:09;17.90;99.90
19019;DHT22;9642;50.842;4.348;2022-09-12T01:57:48;18.00;99.90
19019;DHT22;9642;50.842;4.348;2022-09-12T02:00:18;18.00;99.90
19019;DHT22;9642;50.842;4.348;2022-09-12T02:08:07;17.90;99.90
19019;DHT22;9642;50.842;4.348;2022-09-12T02:10:43;17.90;99.90
19019;DHT22;9642;50.842;4.348;2022-09-12T02:13:18;17.80;99.90
19019;DHT22;9642;50.842;4.348;2022-09-12T02:15:50;17.80;99.90
19019;DHT22;9642;50.842;4.348;2022-09-12T02:18:19;17.80;99.90
19019;DHT22;9642;50.842;4.348;2022-09-12T02:20:47;17.80;99.90
19019;DHT22;9642;50.842;4.348;2022-09-12T02:23:18;17.80;99.90
19019;DHT22;9642;50.842;4.348;2022-09-12T02:25:47;17.80;99.90
19019;DHT22;9642;50.842;4.348;2022-09-12T02:28:18;17.80;99.90
19019;DHT22;9642;50.842;4.348;2022-09-12T02:31:04;17.70;99.90
19019;DHT22;9642;50.842;4.348;2022-09-12T02:36:16;17.70;99.90
19019;DHT22;9642;50.842;4.348;2022-09-12T02:38:49;17.70;99.90
19019;DHT22;9642;50.842;4.348;2022-09-12T02:41:18;17.70;99.90
19019;DHT22;9642;50.842;4.348;2022-09-12T02:43:45;17.70;99.90
19019;DHT22;9642;50.842;4.348;2022-09-12T02:46:38;17.60;99.90
19019;DHT22;9642;50.842;4.348;2022-09-12T02:49:05;17.60;99.90
19019;DHT22;9642;50.842;4.348;2022-09-12T02:51:31;17.60;99.90
19019;DHT22;9642;50.842;4.348;2022-09-12T02:53:58;17.60;99.90
19019;DHT22;9642;50.842;4.348;2022-09-12T02:56:29;17.60;99.90
19019;DHT22;9642;50.842;4.348;2022-09-12T02:59:00;17.60;99.90
19019;DHT22;9642;50.842;4.348;2022-09-12T03:10:14;17.50;99.90
19019;DHT22;9642;50.842;4.348;2022-09-12T03:15:35;17.60;99.90
19019;DHT22;9642;50.842;4.348;2022-09-12T03:26:21;17.50;99.90
19019;DHT22;9642;50.842;4.348;2022-09-12T03:28:48;17.40;99.90
19019;DHT22;9642;50.842;4.348;2022-09-12T03:31:17;17.50;99.90
19019;DHT22;9642;50.842;4.348;2022-09-12T03:33:44;17.50;99.90
19019;DHT22;9642;50.842;4.348;2022-09-12T03:36:23;17.40;99.90
19019;DHT22;9642;50.842;4.348;2022-09-12T03:38:49;17.40;99.90
19019;DHT22;9642;50.842;4.348;2022-09-12T03:41:15;17.40;99.90
19019;DHT22;9642;50.842;4.348;2022-09-12T03:43:41;17.40;99.90
19019;DHT22;9642;50.842;4.348;2022-09-12T03:46:06;17.40;99.90
19019;DHT22;9642;50.842;4.348;2022-09-12T03:48:33;17.50;99.90
19019;DHT22;9642;50.842;4.348;2022-09-12T03:51:03;17.50;99.90
19019;DHT22;9642;50.842;4.348;2022-09-12T03:53:30;17.40;99.90
19019;DHT22;9642;50.842;4.348;2022-09-12T03:55:57;17.40;99.90
19019;DHT22;9642;50.842;4.348;2022-09-12T03:58:23;17.40;99.90
19019;DHT22;9642;50.842;4.348;2022-09-12T04:00:49;17.30;99.90
19019;DHT22;9642;50.842;4.348;2022-09-12T04:03:16;17.40;99.90
19019;DHT22;9642;50.842;4.348;2022-09-12T04:05:44;17.50;99.90
19019;DHT22;9642;50.842;4.348;2022-09-12T04:08:11;17.40;99.90
19019;DHT22;9642;50.842;4.348;2022-09-12T04:10:37;17.40;99.90
19019;DHT22;9642;50.842;4.348;2022-09-12T04:13:03;17.40;99.90
19019;DHT22;9642;50.842;4.348;2022-09-12T04:15:29;17.40;99.90
19019;DHT22;9642;50.842;4.348;2022-09-12T04:17:55;17.40;99.90
19019;DHT22;9642;50.842;4.348;2022-09-12T04:20:21;17.30;99.90
19019;DHT22;9642;50.842;4.348;2022-09-12T04:22:46;17.40;99.90
19019;DHT22;9642;50.842;4.348;2022-09-12T04:25:12;17.50;99.90
19019;DHT22;9642;50.842;4.348;2022-09-12T04:27:39;17.40;99.90
19019;DHT22;9642;50.842;4.348;2022-09-12T04:30:05;17.30;99.90
19019;DHT22;9642;50.842;4.348;2022-09-12T04:32:31;17.20;99.90
19019;DHT22;9642;50.842;4.348;2022-09-12T04:34:57;17.20;99.90
19019;DHT22;9642;50.842;4.348;2022-09-12T04:37:23;17.10;99.90
19019;DHT22;9642;50.842;4.348;2022-09-12T04:39:49;17.10;99.90
19019;DHT22;9642;50.842;4.348;2022-09-12T04:42:16;17.00;99.90
19019;DHT22;9642;50.842;4.348;2022-09-12T04:44:42;16.80;99.90
19019;DHT22;9642;50.842;4.348;2022-09-12T04:47:08;16.70;99.90
19019;DHT22;9642;50.842;4.348;2022-09-12T04:49:34;16.80;99.90
19019;DHT22;9642;50.842;4.348;2022-09-12T04:52:00;16.80;99.90
19019;DHT22;9642;50.842;4.348;2022-09-12T04:54:26;16.70;99.90
19019;DHT22;9642;50.842;4.348;2022-09-12T04:56:52;16.70;99.90
19019;DHT22;9642;50.842;4.348;2022-09-12T04:59:20;16.80;99.90
19019;DHT22;9642;50.842;4.348;2022-09-12T05:01:46;16.70;99.90
19019;DHT22;9642;50.842;4.348;2022-09-12T05:04:13;16.80;99.90
19019;DHT22;9642;50.842;4.348;2022-09-12T05:06:40;16.80;99.90
19019;DHT22;9642;50.842;4.348;2022-09-12T05:09:07;16.80;99.90
19019;DHT22;9642;50.842;4.348;2022-09-12T05:11:38;16.80;99.90
19019;DHT22;9642;50.842;4.348;2022-09-12T05:14:04;16.90;99.90
19019;DHT22;9642;50.842;4.348;2022-09-12T05:16:30;16.90;99.90
19019;DHT22;9642;50.842;4.348;2022-09-12T05:18:58;16.90;99.90
19019;DHT22;9642;50.842;4.348;2022-09-12T05:21:25;16.90;99.90
19019;DHT22;9642;50.842;4.348;2022-09-12T05:23:55;17.00;99.90
19019;DHT22;9642;50.842;4.348;2022-09-12T05:26:22;17.10;99.90
19019;DHT22;9642;50.842;4.348;2022-09-12T05:28:49;17.10;99.90
19019;DHT22;9642;50.842;4.348;2022-09-12T05:31:23;17.00;99.90
19019;DHT22;9642;50.842;4.348;2022-09-12T05:33:51;16.80;99.90
19019;DHT22;9642;50.842;4.348;2022-09-12T05:38:48;16.90;99.90
19019;DHT22;9642;50.842;4.348;2022-09-12T05:41:17;16.90;99.90
19019;DHT22;9642;50.842;4.348;2022-09-12T05:43:44;16.90;99.90
19019;DHT22;9642;50.842;4.348;2022-09-12T05:46:13;16.90;99.90
19019;DHT22;9642;50.842;4.348;2022-09-12T05:48:41;17.00;99.90
19019;DHT22;9642;50.842;4.348;2022-09-12T05:51:11;17.10;99.90
19019;DHT22;9642;50.842;4.348;2022-09-12T05:53:38;17.00;99.90
19019;DHT22;9642;50.842;4.348;2022-09-12T05:56:15;17.10;99.90
19019;DHT22;9642;50.842;4.348;2022-09-12T05:58:47;17.10;99.90
19019;DHT22;9642;50.842;4.348;2022-09-12T06:01:15;17.10;99.90
19019;DHT22;9642;50.842;4.348;2022-09-12T06:03:46;17.10;99.90
19019;DHT22;9642;50.842;4.348;2022-09-12T06:06:14;17.10;99.90
19019;DHT22;9642;50.842;4.348;2022-09-12T06:08:42;17.00;99.90
19019;DHT22;9642;50.842;4.348;2022-09-12T06:11:10;17.00;99.90
19019;DHT22;9642;50.842;4.348;2022-09-12T06:13:37;17.00;99.90
19019;DHT22;9642;50.842;4.348;2022-09-12T06:16:09;17.00;99.90
19019;DHT22;9642;50.842;4.348;2022-09-12T06:18:36;17.10;99.90
19019;DHT22;9642;50.842;4.348;2022-09-12T06:21:10;17.10;99.90
19019;DHT22;9642;50.842;4.348;2022-09-12T06:23:38;17.20;99.90
19019;DHT22;9642;50.842;4.348;2022-09-12T06:26:07;17.20;99.90
19019;DHT22;9642;50.842;4.348;2022-09-12T06:28:38;17.30;99.90
19019;DHT22;9642;50.842;4.348;2022-09-12T06:31:07;17.30;99.90
19019;DHT22;9642;50.842;4.348;2022-09-12T06:33:34;17.50;99.90
19019;DHT22;9642;50.842;4.348;2022-09-12T06:36:09;17.60;99.90
19019;DHT22;9642;50.842;4.348;2022-09-12T06:38:36;17.60;99.90
19019;DHT22;9642;50.842;4.348;2022-09-12T06:41:08;17.70;99.90
19019;DHT22;9642;50.842;4.348;2022-09-12T06:43:34;17.70;99.90
19019;DHT22;9642;50.842;4.348;2022-09-12T06:46:01;17.80;99.90
19019;DHT22;9642;50.842;4.348;2022-09-12T06:48:27;18.00;99.90
19019;DHT22;9642;50.842;4.348;2022-09-12T06:50:58;18.10;99.90
19019;DHT22;9642;50.842;4.348;2022-09-12T06:53:25;18.20;99.90
19019;DHT22;9642;50.842;4.348;2022-09-12T06:56:15;18.20;99.90
19019;DHT22;9642;50.842;4.348;2022-09-12T06:58:42;18.30;99.90
19019;DHT22;9642;50.842;4.348;2022-09-12T07:01:16;18.50;99.90
19019;DHT22;9642;50.842;4.348;2022-09-12T07:03:46;18.50;99.90
19019;DHT22;9642;50.842;4.348;2022-09-12T07:06:15;18.60;99.90
19019;DHT22;9642;50.842;4.348;2022-09-12T07:08:41;18.60;99.90
19019;DHT22;9642;50.842;4.348;2022-09-12T07:11:18;18.60;99.90
19019;DHT22;9642;50.842;4.348;2022-09-12T07:13:47;18.70;99.90
19019;DHT22;9642;50.842;4.348;2022-09-12T07:16:13;18.80;99.90
19019;DHT22;9642;50.842;4.348;2022-09-12T07:18:39;18.90;99.90
19019;DHT22;9642;50.842;4.348;2022-09-12T07:21:08;18.80;99.90
19019;DHT22;9642;50.842;4.348;2022-09-12T07:23:35;18.90;99.90
19019;DHT22;9642;50.842;4.348;2022-09-12T07:26:01;18.80;99.90
19019;DHT22;9642;50.842;4.348;2022-09-12T07:28:29;18.90;99.90
19019;DHT22;9642;50.842;4.348;2022-09-12T07:30:55;19.00;99.90
19019;DHT22;9642;50.842;4.348;2022-09-12T07:33:23;19.00;99.90
19019;DHT22;9642;50.842;4.348;2022-09-12T07:35:51;19.10;99.90
19019;DHT22;9642;50.842;4.348;2022-09-12T07:38:20;19.10;99.90
19019;DHT22;9642;50.842;4.348;2022-09-12T07:40:46;19.20;99.90
19019;DHT22;9642;50.842;4.348;2022-09-12T07:43:11;19.40;99.90
19019;DHT22;9642;50.842;4.348;2022-09-12T07:45:38;19.50;99.90
19019;DHT22;9642;50.842;4.348;2022-09-12T07:48:07;19.70;99.70
19019;DHT22;9642;50.842;4.348;2022-09-12T07:50:33;19.60;99.40
19019;DHT22;9642;50.842;4.348;2022-09-12T07:52:59;19.70;99.60
19019;DHT22;9642;50.842;4.348;2022-09-12T07:55:25;19.90;99.30
19019;DHT22;9642;50.842;4.348;2022-09-12T07:57:51;20.00;98.80
19019;DHT22;9642;50.842;4.348;2022-09-12T08:00:17;19.90;98.90
19019;DHT22;9642;50.842;4.348;2022-09-12T08:02:44;19.90;98.60
19019;DHT22;9642;50.842;4.348;2022-09-12T08:05:10;19.90;98.70
19019;DHT22;9642;50.842;4.348;2022-09-12T08:07:36;20.00;98.50
19019;DHT22;9642;50.842;4.348;2022-09-12T08:10:02;20.20;98.50
19019;DHT22;9642;50.842;4.348;2022-09-12T08:12:28;20.40;98.10
19019;DHT22;9642;50.842;4.348;2022-09-12T08:14:54;20.50;97.90
19019;DHT22;9642;50.842;4.348;2022-09-12T08:17:20;20.60;97.60
19019;DHT22;9642;50.842;4.348;2022-09-12T08:19:46;20.60;97.60
19019;DHT22;9642;50.842;4.348;2022-09-12T08:22:12;20.80;97.30
19019;DHT22;9642;50.842;4.348;2022-09-12T08:24:38;20.90;97.40
19019;DHT22;9642;50.842;4.348;2022-09-12T08:27:05;20.90;97.20
19019;DHT22;9642;50.842;4.348;2022-09-12T08:29:31;20.90;97.20
19019;DHT22;9642;50.842;4.348;2022-09-12T08:31:57;20.80;97.30
19019;DHT22;9642;50.842;4.348;2022-09-12T08:34:23;20.90;97.30
19019;DHT22;9642;50.842;4.348;2022-09-12T08:36:50;20.90;97.40
19019;DHT22;9642;50.842;4.348;2022-09-12T08:39:16;21.00;97.50
19019;DHT22;9642;50.842;4.348;2022-09-12T08:42:04;21.20;97.00
19019;DHT22;9642;50.842;4.348;2022-09-12T08:47:18;21.50;96.20
19019;DHT22;9642;50.842;4.348;2022-09-12T08:55:29;21.40;96.20
19019;DHT22;9642;50.842;4.348;2022-09-12T08:58:08;21.30;96.00
19019;DHT22;9642;50.842;4.348;2022-09-12T09:01:01;21.30;96.10
19019;DHT22;9642;50.842;4.348;2022-09-12T09:12:32;21.90;95.40
19019;DHT22;9642;50.842;4.348;2022-09-12T09:18:22;22.00;95.20
19019;DHT22;9642;50.842;4.348;2022-09-12T09:20:55;22.10;94.90
19019;DHT22;9642;50.842;4.348;2022-09-12T09:23:43;22.20;94.80
19019;DHT22;9642;50.842;4.348;2022-09-12T09:28:51;22.40;94.00
19019;DHT22;9642;50.842;4.348;2022-09-12T09:31:21;22.30;94.50
19019;DHT22;9642;50.842;4.348;2022-09-12T09:33:54;22.40;94.50
19019;DHT22;9642;50.842;4.348;2022-09-12T09:36:32;22.50;94.40
19019;DHT22;9642;50.842;4.348;2022-09-12T09:42:25;23.10;93.50
19019;DHT22;9642;50.842;4.348;2022-09-12T09:44:55;24.50;91.30
19019;DHT22;9642;50.842;4.348;2022-09-12T09:47:23;27.50;83.60
19019;DHT22;9642;50.842;4.348;2022-09-12T09:49:49;30.00;74.60
19019;DHT22;9642;50.842;4.348;2022-09-12T09:52:18;31.40;69.10
19019;DHT22;9642;50.842;4.348;2022-09-12T09:54:57;33.00;65.40
19019;DHT22;9642;50.842;4.348;2022-09-12T10:05:23;34.90;56.40
19019;DHT22;9642;50.842;4.348;2022-09-12T10:07:53;34.90;55.90
19019;DHT22;9642;50.842;4.348;2022-09-12T10:10:19;35.10;56.10
19019;DHT22;9642;50.842;4.348;2022-09-12T10:12:49;35.90;54.40
19019;DHT22;9642;50.842;4.348;2022-09-12T10:15:23;35.40;54.20
19019;DHT22;9642;50.842;4.348;2022-09-12T10:17:52;34.80;55.20
19019;DHT22;9642;50.842;4.348;2022-09-12T10:20:39;34.20;56.30
19019;DHT22;9642;50.842;4.348;2022-09-12T10:23:35;34.20;56.30
19019;DHT22;9642;50.842;4.348;2022-09-12T10:26:06;33.90;57.20
19019;DHT22;9642;50.842;4.348;2022-09-12T10:28:39;34.50;55.60
19019;DHT22;9642;50.842;4.348;2022-09-12T10:31:13;34.10;55.40
19019;DHT22;9642;50.842;4.348;2022-09-12T10:33:46;32.50;58.30
19019;DHT22;9642;50.842;4.348;2022-09-12T10:36:18;32.10;60.40
19019;DHT22;9642;50.842;4.348;2022-09-12T10:38:56;32.40;59.40
19019;DHT22;9642;50.842;4.348;2022-09-12T10:41:22;32.80;58.40
19019;DHT22;9642;50.842;4.348;2022-09-12T10:43:49;33.90;57.00
19019;DHT22;9642;50.842;4.348;2022-09-12T10:48:48;32.80;58.50
19019;DHT22;9642;50.842;4.348;2022-09-12T10:53:58;31.70;59.70
19019;DHT22;9642;50.842;4.348;2022-09-12T10:56:32;32.70;58.40
19019;DHT22;9642;50.842;4.348;2022-09-12T10:59:29;32.30;59.40
19019;DHT22;9642;50.842;4.348;2022-09-12T11:05:09;32.80;58.00
19019;DHT22;9642;50.842;4.348;2022-09-12T11:07:41;33.10;56.90
19019;DHT22;9642;50.842;4.348;2022-09-12T11:10:30;34.00;55.90
19019;DHT22;9642;50.842;4.348;2022-09-12T11:13:20;34.60;54.90
19019;DHT22;9642;50.842;4.348;2022-09-12T11:18:50;33.60;56.50
19019;DHT22;9642;50.842;4.348;2022-09-12T11:30:14;32.90;56.40
19019;DHT22;9642;50.842;4.348;2022-09-12T11:33:03;32.50;57.10
19019;DHT22;9642;50.842;4.348;2022-09-12T11:35:35;31.90;57.80
19019;DHT22;9642;50.842;4.348;2022-09-12T11:38:13;32.50;57.30
19019;DHT22;9642;50.842;4.348;2022-09-12T11:43:22;32.80;57.70
19019;DHT22;9642;50.842;4.348;2022-09-12T11:45:50;32.20;58.10
19019;DHT22;9642;50.842;4.348;2022-09-12T11:48:41;32.50;57.70
19019;DHT22;9642;50.842;4.348;2022-09-12T11:51:23;32.90;56.90
19019;DHT22;9642;50.842;4.348;2022-09-12T11:56:45;32.80;56.50
19019;DHT22;9642;50.842;4.348;2022-09-12T11:59:34;31.80;57.60
19019;DHT22;9642;50.842;4.348;2022-09-12T12:02:03;31.70;58.60
19019;DHT22;9642;50.842;4.348;2022-09-12T12:04:43;31.60;59.00
19019;DHT22;9642;50.842;4.348;2022-09-12T12:07:11;31.80;58.90
19019;DHT22;9642;50.842;4.348;2022-09-12T12:09:48;32.30;57.80
19019;DHT22;9642;50.842;4.348;2022-09-12T12:12:21;31.90;58.20
19019;DHT22;9642;50.842;4.348;2022-09-12T12:14:51;32.00;58.60
19019;DHT22;9642;50.842;4.348;2022-09-12T12:17:26;31.70;59.00
19019;DHT22;9642;50.842;4.348;2022-09-12T12:20:03;31.70;58.80
19019;DHT22;9642;50.842;4.348;2022-09-12T12:22:29;31.50;58.40
19019;DHT22;9642;50.842;4.348;2022-09-12T12:35:43;30.00;61.30
19019;DHT22;9642;50.842;4.348;2022-09-12T12:38:28;29.90;62.40
19019;DHT22;9642;50.842;4.348;2022-09-12T12:43:47;29.60;63.40
19019;DHT22;9642;50.842;4.348;2022-09-12T12:46:14;29.80;62.10
19019;DHT22;9642;50.842;4.348;2022-09-12T12:53:49;29.80;63.00
19019;DHT22;9642;50.842;4.348;2022-09-12T12:56:37;29.60;62.60
19019;DHT22;9642;50.842;4.348;2022-09-12T12:59:13;29.60;62.80
19019;DHT22;9642;50.842;4.348;2022-09-12T13:01:45;29.20;63.50
19019;DHT22;9642;50.842;4.348;2022-09-12T13:04:16;29.00;63.80
19019;DHT22;9642;50.842;4.348;2022-09-12T13:07:01;28.70;65.30
19019;DHT22;9642;50.842;4.348;2022-09-12T13:09:44;28.10;66.50
19019;DHT22;9642;50.842;4.348;2022-09-12T13:12:21;28.00;67.60
19019;DHT22;9642;50.842;4.348;2022-09-12T13:19:47;28.50;66.90
19019;DHT22;9642;50.842;4.348;2022-09-12T13:22:14;28.40;67.50
19019;DHT22;9642;50.842;4.348;2022-09-12T13:24:47;28.30;68.30
19019;DHT22;9642;50.842;4.348;2022-09-12T13:27:24;28.10;67.30
19019;DHT22;9642;50.842;4.348;2022-09-12T13:30:13;27.80;68.60
19019;DHT22;9642;50.842;4.348;2022-09-12T13:32:41;27.50;69.70
19019;DHT22;9642;50.842;4.348;2022-09-12T13:35:34;27.70;69.80
19019;DHT22;9642;50.842;4.348;2022-09-12T13:43:50;27.90;69.30
19019;DHT22;9642;50.842;4.348;2022-09-12T13:46:27;27.80;67.50
19019;DHT22;9642;50.842;4.348;2022-09-12T13:48:56;27.80;67.70
19019;DHT22;9642;50.842;4.348;2022-09-12T13:51:27;27.80;67.90
19019;DHT22;9642;50.842;4.348;2022-09-12T13:53:58;27.90;66.80
19019;DHT22;9642;50.842;4.348;2022-09-12T13:56:25;28.00;66.70
19019;DHT22;9642;50.842;4.348;2022-09-12T13:58:53;27.90;67.00
19019;DHT22;9642;50.842;4.348;2022-09-12T14:01:21;27.60;68.10
19019;DHT22;9642;50.842;4.348;2022-09-12T14:03:53;27.70;68.50
19019;DHT22;9642;50.842;4.348;2022-09-12T14:09:25;28.10;67.80
19019;DHT22;9642;50.842;4.348;2022-09-12T14:11:53;27.80;68.80
19019;DHT22;9642;50.842;4.348;2022-09-12T14:14:35;27.70;69.10
19019;DHT22;9642;50.842;4.348;2022-09-12T14:17:31;27.40;69.30
19019;DHT22;9642;50.842;4.348;2022-09-12T14:20:06;27.20;68.70
19019;DHT22;9642;50.842;4.348;2022-09-12T14:22:33;27.30;68.20
19019;DHT22;9642;50.842;4.348;2022-09-12T14:25:00;27.00;68.10
19019;DHT22;9642;50.842;4.348;2022-09-12T14:27:41;26.90;68.90
19019;DHT22;9642;50.842;4.348;2022-09-12T14:30:28;27.20;68.20
19019;DHT22;9642;50.842;4.348;2022-09-12T14:35:50;27.50;67.20
19019;DHT22;9642;50.842;4.348;2022-09-12T14:41:19;27.70;67.30
19019;DHT22;9642;50.842;4.348;2022-09-12T14:43:40;27.80;67.20
19019;DHT22;9642;50.842;4.348;2022-09-12T14:46:21;28.00;67.30
19019;DHT22;9642;50.842;4.348;2022-09-12T14:48:51;28.30;65.90
19019;DHT22;9642;50.842;4.348;2022-09-12T14:51:25;28.40;66.50
19019;DHT22;9642;50.842;4.348;2022-09-12T14:53:52;28.30;65.90
19019;DHT22;9642;50.842;4.348;2022-09-12T14:56:21;28.10;66.80
19019;DHT22;9642;50.842;4.348;2022-09-12T14:59:40;28.00;67.20
19019;DHT22;9642;50.842;4.348;2022-09-12T15:04:49;28.00;66.20
19019;DHT22;9642;50.842;4.348;2022-09-12T15:12:31;27.80;67.60
19019;DHT22;9642;50.842;4.348;2022-09-12T15:15:03;27.80;67.00
19019;DHT22;9642;50.842;4.348;2022-09-12T15:17:31;27.80;65.80
19019;DHT22;9642;50.842;4.348;2022-09-12T15:19:57;27.60;66.80
19019;DHT22;9642;50.842;4.348;2022-09-12T15:22:23;27.40;67.80
19019;DHT22;9642;50.842;4.348;2022-09-12T15:24:50;27.10;69.00
19019;DHT22;9642;50.842;4.348;2022-09-12T15:27:17;27.20;69.00
19019;DHT22;9642;50.842;4.348;2022-09-12T15:29:43;27.30;69.30
19019;DHT22;9642;50.842;4.348;2022-09-12T15:32:22;27.40;69.30
19019;DHT22;9642;50.842;4.348;2022-09-12T15:34:48;27.30;68.60
19019;DHT22;9642;50.842;4.348;2022-09-12T15:37:14;27.20;69.40
19019;DHT22;9642;50.842;4.348;2022-09-12T15:39:40;27.10;69.10
19019;DHT22;9642;50.842;4.348;2022-09-12T15:42:08;27.00;69.30
19019;DHT22;9642;50.842;4.348;2022-09-12T15:44:39;27.00;69.30
19019;DHT22;9642;50.842;4.348;2022-09-12T15:47:05;27.00;69.90
19019;DHT22;9642;50.842;4.348;2022-09-12T15:49:33;26.90;69.00
19019;DHT22;9642;50.842;4.348;2022-09-12T15:51:59;27.00;70.20
19019;DHT22;9642;50.842;4.348;2022-09-12T15:54:25;26.90;68.50
19019;DHT22;9642;50.842;4.348;2022-09-12T15:56:51;26.80;69.10
19019;DHT22;9642;50.842;4.348;2022-09-12T15:59:17;26.80;69.10
19019;DHT22;9642;50.842;4.348;2022-09-12T16:01:43;26.70;69.60
19019;DHT22;9642;50.842;4.348;2022-09-12T16:04:21;26.70;69.90
19019;DHT22;9642;50.842;4.348;2022-09-12T16:06:49;26.60;69.70
19019;DHT22;9642;50.842;4.348;2022-09-12T16:09:15;26.60;70.60
19019;DHT22;9642;50.842;4.348;2022-09-12T16:11:41;26.60;70.70
19019;DHT22;9642;50.842;4.348;2022-09-12T16:14:07;26.70;70.90
19019;DHT22;9642;50.842;4.348;2022-09-12T16:16:33;26.50;71.50
19019;DHT22;9642;50.842;4.348;2022-09-12T16:19:00;26.30;71.70
19019;DHT22;9642;50.842;4.348;2022-09-12T16:21:25;26.10;72.30
19019;DHT22;9642;50.842;4.348;2022-09-12T16:23:51;26.10;72.60
19019;DHT22;9642;50.842;4.348;2022-09-12T16:26:17;26.20;72.50
19019;DHT22;9642;50.842;4.348;2022-09-12T16:28:43;26.40;71.60
19019;DHT22;9642;50.842;4.348;2022-09-12T16:31:11;26.40;71.70
19019;DHT22;9642;50.842;4.348;2022-09-12T16:33:39;26.50;72.20
19019;DHT22;9642;50.842;4.348;2022-09-12T16:36:10;26.50;73.30
19019;DHT22;9642;50.842;4.348;2022-09-12T16:38:41;26.60;71.80
19019;DHT22;9642;50.842;4.348;2022-09-12T16:41:07;26.50;72.10
19019;DHT22;9642;50.842;4.348;2022-09-12T16:43:34;26.50;72.70
19019;DHT22;9642;50.842;4.348;2022-09-12T16:46:07;26.60;72.50
19019;DHT22;9642;50.842;4.348;2022-09-12T16:48:34;26.70;72.50
19019;DHT22;9642;50.842;4.348;2022-09-12T16:51:04;26.60;73.10
19019;DHT22;9642;50.842;4.348;2022-09-12T16:53:33;26.70;73.50
19019;DHT22;9642;50.842;4.348;2022-09-12T16:55:59;26.40;73.10
19019;DHT22;9642;50.842;4.348;2022-09-12T16:58:25;26.40;73.90
19019;DHT22;9642;50.842;4.348;2022-09-12T17:03:28;26.20;74.00
19019;DHT22;9642;50.842;4.348;2022-09-12T17:08:23;26.20;74.00
19019;DHT22;9642;50.842;4.348;2022-09-12T17:10:49;26.30;74.10
19019;DHT22;9642;50.842;4.348;2022-09-12T17:13:16;26.20;74.40
19019;DHT22;9642;50.842;4.348;2022-09-12T17:15:41;26.20;74.50
19019;DHT22;9642;50.842;4.348;2022-09-12T17:18:07;26.00;74.80
19019;DHT22;9642;50.842;4.348;2022-09-12T17:20:37;26.00;76.00
19019;DHT22;9642;50.842;4.348;2022-09-12T17:23:03;26.00;75.50
19019;DHT22;9642;50.842;4.348;2022-09-12T17:25:29;26.00;75.10
19019;DHT22;9642;50.842;4.348;2022-09-12T17:27:54;25.90;75.40
19019;DHT22;9642;50.842;4.348;2022-09-12T17:30:20;25.80;75.80
19019;DHT22;9642;50.842;4.348;2022-09-12T17:32:46;25.80;75.90
19019;DHT22;9642;50.842;4.348;2022-09-12T17:35:12;25.70;76.20
19019;DHT22;9642;50.842;4.348;2022-09-12T17:37:38;25.70;76.70
19019;DHT22;9642;50.842;4.348;2022-09-12T17:40:04;25.70;76.70
19019;DHT22;9642;50.842;4.348;2022-09-12T17:42:35;25.70;77.00
19019;DHT22;9642;50.842;4.348;2022-09-12T17:45:01;25.70;78.10
19019;DHT22;9642;50.842;4.348;2022-09-12T17:47:27;25.70;78.20
19019;DHT22;9642;50.842;4.348;2022-09-12T17:49:53;25.60;78.20
19019;DHT22;9642;50.842;4.348;2022-09-12T17:52:19;25.60;80.00
19019;DHT22;9642;50.842;4.348;2022-09-12T17:54:47;25.60;78.90
19019;DHT22;9642;50.842;4.348;2022-09-12T17:57:13;25.50;78.50
19019;DHT22;9642;50.842;4.348;2022-09-12T17:59:41;25.40;78.10
19019;DHT22;9642;50.842;4.348;2022-09-12T18:02:11;25.40;79.00
19019;DHT22;9642;50.842;4.348;2022-09-12T18:04:39;25.40;79.00
19019;DHT22;9642;50.842;4.348;2022-09-12T18:07:06;25.40;79.00
19019;DHT22;9642;50.842;4.348;2022-09-12T18:09:33;25.40;78.90
19019;DHT22;9642;50.842;4.348;2022-09-12T18:12:01;25.40;78.90
19019;DHT22;9642;50.842;4.348;2022-09-12T18:14:27;25.40;78.80
19019;DHT22;9642;50.842;4.348;2022-09-12T18:16:53;25.30;78.00
19019;DHT22;9642;50.842;4.348;2022-09-12T18:19:22;25.20;79.80
19019;DHT22;9642;50.842;4.348;2022-09-12T18:21:48;25.20;81.60
19019;DHT22;9642;50.842;4.348;2022-09-12T18:24:14;25.10;83.30
19019;DHT22;9642;50.842;4.348;2022-09-12T18:26:40;25.00;83.20
19019;DHT22;9642;50.842;4.348;2022-09-12T18:29:08;25.00;83.00
19019;DHT22;9642;50.842;4.348;2022-09-12T18:31:34;24.90;84.80
19019;DHT22;9642;50.842;4.348;2022-09-12T18:34:00;24.80;83.60
19019;DHT22;9642;50.842;4.348;2022-09-12T18:36:28;24.80;83.40
19019;DHT22;9642;50.842;4.348;2022-09-12T18:38:56;24.80;84.30
19019;DHT22;9642;50.842;4.348;2022-09-12T18:41:24;24.70;85.80
19019;DHT22;9642;50.842;4.348;2022-09-12T18:43:57;24.60;83.70